ROYN/OGN METAR and TAF weather

Enter ICAO airport designator
Station Type Date Time Source
ROYN METAR 2020/01/27 10:00 UTC NOAA

ROYN 271000Z AUTO 01023KT 9999 SCT026 OVC030 18/13 Q1014


Station Type Date Time Source
ROYN Decoded METAR 2020/01/27 10:00 UTC NOAA

Yonaguni Airport, Japan (ROYN) 24-28N 122-59E 19M
Jan 27, 2020 - 05:00 AM EST / 2020.01.27 1000 UTC
Wind: from the N (010 degrees) at 26 MPH (23 KT):0
Visibility: greater than 7 mile(s):0
Sky conditions: overcast
Temperature: 64 F (18 C)
Dew Point: 55 F (13 C)
Relative Humidity: 72%
Pressure (altimeter): 29.94 in. Hg (1014 hPa)
ob: ROYN 271000Z AUTO 01023KT 9999 SCT026 OVC030 18/13 Q1014
cycle: 10

Station Type Date Time Source
ROYN TAF UTC NOAA

Error!

Example: see airport list